Marcola, Oregon
Current Conditions -  °F | °C
As of 2:54 AM on Saturday 20 Dec 2014 (Local Time) from KEUG Reporting Station
Light Rain Light Rain  
Wind Chill: 42°   Ceiling: 4600
Heat Index: 48°   Visibility: 10mi
Dew Point: 45°   Wind: 15mph
Humidity: 89%   Direction: 150°SSE
Pressure: 29.87"   Gusts: NA
Location:  44.17°N, 122.86°W
Report Text: KEUG 201054Z AUTO 15013KT 10SM -RA OVC046 09/07 A2987 RMK AO2 SLP114 P0007 T00890072
Loading
Personal Weather Stations






























Interactive Weather Map New forecast layout! Learn more

10-Day Weather Forecast

Advertisements
Track Severe Weather on mobile